BEA5432 EGLC-EGHQ
Flight info
| Callsign | BEA5432 |
|---|---|
| Flight time | 0h 57m |
| Altitude | 22000 |
| Route | SOQQA M87 EKNIV M91 LYD M189 WAFFU Y8 SAM L620 DAWLY |
| Aircraft | RJ1H/M-SDFGIRWY/LB1 |
Departure
| Time | 2026-04-21 10:58 |
|---|---|
| Airport | London City Airport (EGLC) |
Arrival
| Time | 2026-04-21 11:56 |
|---|---|
| Airport | Cornwall Airport Newquay (EGHQ) |
| Time | Latitude | Longitude | Altitude | Speed | Heading |
|---|---|---|---|---|---|
| 2026-04-21 10:29 | 51.50434 | 0.04883 | 28 ft | 0 kts | 316° |
| 2026-04-21 10:55 | 51.50448 | 0.04861 | 29 ft | 4 kts | 316° |
| 2026-04-21 10:56 | 51.50465 | 0.04819 | 25 ft | 6 kts | 278° |
| 2026-04-21 10:56 | 51.50470 | 0.04724 | 25 ft | 12 kts | 271° |
| 2026-04-21 10:56 | 51.50474 | 0.04583 | 25 ft | 12 kts | 273° |
| 2026-04-21 10:56 | 51.50480 | 0.04468 | 25 ft | 9 kts | 287° |
| 2026-04-21 10:57 | 51.50527 | 0.04441 | 25 ft | 9 kts | 15° |
| 2026-04-21 10:57 | 51.50555 | 0.04487 | 25 ft | 9 kts | 84° |
| 2026-04-21 10:57 | 51.50547 | 0.04775 | 25 ft | 60 kts | 93° |
| 2026-04-21 10:57 | 51.50516 | 0.05759 | 110 ft | 106 kts | 92° |
| 2026-04-21 10:58 | 51.50485 | 0.06565 | 376 ft | 108 kts | 91° |
| 2026-04-21 10:58 | 51.50446 | 0.08219 | 1030 ft | 121 kts | 89° |
| 2026-04-21 10:58 | 51.50599 | 0.09603 | 1403 ft | 137 kts | 59° |
| 2026-04-21 10:58 | 51.51296 | 0.10874 | 1653 ft | 167 kts | 47° |
| 2026-04-21 10:59 | 51.51897 | 0.11792 | 1875 ft | 185 kts | 45° |
| 2026-04-21 10:59 | 51.52900 | 0.13197 | 2728 ft | 194 kts | 43° |
| 2026-04-21 10:59 | 51.53923 | 0.14569 | 3821 ft | 195 kts | 42° |
| 2026-04-21 10:59 | 51.54973 | 0.15987 | 4753 ft | 201 kts | 48° |
| 2026-04-21 11:00 | 51.55608 | 0.18011 | 5422 ft | 213 kts | 79° |
| 2026-04-21 11:00 | 51.55905 | 0.20426 | 6052 ft | 227 kts | 78° |
| 2026-04-21 11:00 | 51.56244 | 0.22939 | 6706 ft | 239 kts | 80° |
| 2026-04-21 11:00 | 51.56681 | 0.25593 | 7467 ft | 247 kts | 70° |
| 2026-04-21 11:01 | 51.57375 | 0.28116 | 8284 ft | 253 kts | 67° |
| 2026-04-21 11:01 | 51.58129 | 0.30718 | 9097 ft | 259 kts | 66° |
| 2026-04-21 11:01 | 51.58921 | 0.33349 | 9969 ft | 263 kts | 65° |
| 2026-04-21 11:02 | 51.60564 | 0.38835 | 11113 ft | 285 kts | 71° |
| 2026-04-21 11:02 | 51.60780 | 0.42038 | 11453 ft | 298 kts | 97° |
| 2026-04-21 11:02 | 51.60377 | 0.45362 | 11863 ft | 307 kts | 100° |
| 2026-04-21 11:02 | 51.59967 | 0.48758 | 12332 ft | 313 kts | 99° |
| 2026-04-21 11:03 | 51.59546 | 0.52200 | 12817 ft | 313 kts | 99° |
| 2026-04-21 11:03 | 51.59064 | 0.55632 | 13306 ft | 317 kts | 107° |
| 2026-04-21 11:03 | 51.57852 | 0.58581 | 13820 ft | 325 kts | 135° |
| 2026-04-21 11:03 | 51.55846 | 0.60381 | 14114 ft | 339 kts | 161° |
| 2026-04-21 11:04 | 51.53478 | 0.60766 | 14494 ft | 346 kts | 175° |
| 2026-04-21 11:04 | 51.51094 | 0.60814 | 14874 ft | 346 kts | 174° |
| 2026-04-21 11:04 | 51.48657 | 0.61025 | 15245 ft | 347 kts | 173° |
| 2026-04-21 11:04 | 51.46282 | 0.61353 | 15591 ft | 348 kts | 171° |
| 2026-04-21 11:05 | 51.43870 | 0.61817 | 15953 ft | 349 kts | 170° |
| 2026-04-21 11:05 | 51.41462 | 0.62375 | 16305 ft | 350 kts | 167° |
| 2026-04-21 11:05 | 51.39092 | 0.63265 | 16630 ft | 349 kts | 158° |
| 2026-04-21 11:05 | 51.36786 | 0.64484 | 16993 ft | 349 kts | 158° |
| 2026-04-21 11:06 | 51.34474 | 0.65735 | 17388 ft | 350 kts | 157° |
| 2026-04-21 11:06 | 51.32150 | 0.67001 | 17773 ft | 358 kts | 158° |
| 2026-04-21 11:06 | 51.29767 | 0.68311 | 18033 ft | 364 kts | 158° |
| 2026-04-21 11:06 | 51.27361 | 0.69617 | 18454 ft | 365 kts | 159° |
| 2026-04-21 11:07 | 51.24974 | 0.70908 | 18823 ft | 367 kts | 159° |
| 2026-04-21 11:07 | 51.22575 | 0.72349 | 19040 ft | 372 kts | 154° |
| 2026-04-21 11:07 | 51.20180 | 0.73975 | 19303 ft | 374 kts | 154° |
| 2026-04-21 11:07 | 51.17741 | 0.75695 | 19506 ft | 379 kts | 155° |
| 2026-04-21 11:08 | 51.15368 | 0.77380 | 19870 ft | 380 kts | 155° |
| 2026-04-21 11:08 | 51.12937 | 0.79091 | 20116 ft | 384 kts | 156° |
| 2026-04-21 11:08 | 51.10467 | 0.80796 | 20322 ft | 388 kts | 156° |
| 2026-04-21 11:08 | 51.07975 | 0.82519 | 20514 ft | 394 kts | 156° |
| 2026-04-21 11:09 | 51.05449 | 0.84226 | 20843 ft | 394 kts | 160° |
| 2026-04-21 11:09 | 51.02749 | 0.84989 | 20974 ft | 396 kts | 185° |
| 2026-04-21 11:09 | 51.00085 | 0.84080 | 21277 ft | 392 kts | 203° |
| 2026-04-21 11:09 | 50.97549 | 0.82471 | 21554 ft | 393 kts | 204° |
| 2026-04-21 11:10 | 50.95067 | 0.80788 | 21815 ft | 393 kts | 210° |
| 2026-04-21 11:10 | 50.92711 | 0.78614 | 22089 ft | 391 kts | 218° |
| 2026-04-21 11:10 | 50.90501 | 0.76101 | 22364 ft | 391 kts | 222° |
| 2026-04-21 11:10 | 50.88364 | 0.73425 | 22642 ft | 391 kts | 224° |
| 2026-04-21 11:11 | 50.86258 | 0.70682 | 22869 ft | 392 kts | 225° |
| 2026-04-21 11:11 | 50.84175 | 0.67954 | 22477 ft | 386 kts | 225° |
| 2026-04-21 11:11 | 50.82110 | 0.65248 | 22340 ft | 384 kts | 225° |
| 2026-04-21 11:11 | 50.80045 | 0.62574 | 22305 ft | 384 kts | 224° |
| 2026-04-21 11:12 | 50.77973 | 0.59927 | 22293 ft | 383 kts | 224° |
| 2026-04-21 11:12 | 50.75890 | 0.57276 | 22295 ft | 385 kts | 224° |
| 2026-04-21 11:12 | 50.73800 | 0.54620 | 22299 ft | 389 kts | 224° |
| 2026-04-21 11:12 | 50.71668 | 0.51905 | 22303 ft | 397 kts | 224° |
| 2026-04-21 11:13 | 50.69493 | 0.49180 | 22303 ft | 401 kts | 223° |
| 2026-04-21 11:13 | 50.67299 | 0.46454 | 22275 ft | 401 kts | 224° |
| 2026-04-21 11:13 | 50.65115 | 0.43726 | 22284 ft | 399 kts | 225° |
| 2026-04-21 11:13 | 50.63120 | 0.40785 | 22274 ft | 385 kts | 241° |
| 2026-04-21 11:14 | 50.62018 | 0.37100 | 22302 ft | 365 kts | 264° |
| 2026-04-21 11:14 | 50.61935 | 0.33193 | 22319 ft | 355 kts | 280° |
| 2026-04-21 11:14 | 50.62236 | 0.29378 | 22305 ft | 355 kts | 282° |
| 2026-04-21 11:14 | 50.62587 | 0.25525 | 22305 ft | 355 kts | 283° |
| 2026-04-21 11:15 | 50.62974 | 0.21693 | 22301 ft | 355 kts | 282° |
| 2026-04-21 11:15 | 50.63320 | 0.17836 | 22296 ft | 355 kts | 283° |
| 2026-04-21 11:15 | 50.63810 | 0.14027 | 22293 ft | 354 kts | 288° |
| 2026-04-21 11:15 | 50.64499 | 0.10310 | 22292 ft | 353 kts | 291° |
| 2026-04-21 11:16 | 50.65310 | 0.06658 | 22295 ft | 355 kts | 293° |
| 2026-04-21 11:16 | 50.66192 | 0.02996 | 22290 ft | 360 kts | 294° |
| 2026-04-21 11:16 | 50.67125 | -0.00673 | 22291 ft | 360 kts | 294° |
| 2026-04-21 11:16 | 50.68045 | -0.04315 | 22284 ft | 354 kts | 294° |
| 2026-04-21 11:17 | 50.68956 | -0.07920 | 22289 ft | 354 kts | 294° |
| 2026-04-21 11:17 | 50.69867 | -0.11535 | 22296 ft | 355 kts | 294° |
| 2026-04-21 11:17 | 50.70781 | -0.15153 | 22301 ft | 355 kts | 294° |
| 2026-04-21 11:17 | 50.71693 | -0.18790 | 22298 ft | 355 kts | 294° |
| 2026-04-21 11:18 | 50.72566 | -0.22380 | 22302 ft | 355 kts | 294° |
| 2026-04-21 11:18 | 50.73467 | -0.26020 | 22299 ft | 355 kts | 294° |
| 2026-04-21 11:18 | 50.74355 | -0.29665 | 22304 ft | 356 kts | 293° |
| 2026-04-21 11:18 | 50.75247 | -0.33310 | 22300 ft | 356 kts | 294° |
| 2026-04-21 11:19 | 50.76018 | -0.36436 | 22300 ft | 356 kts | 293° |
| 2026-04-21 11:19 | 50.76929 | -0.40199 | 22302 ft | 356 kts | 294° |
| 2026-04-21 11:19 | 50.77826 | -0.43844 | 22299 ft | 356 kts | 293° |
| 2026-04-21 11:19 | 50.78707 | -0.47495 | 22301 ft | 356 kts | 294° |
| 2026-04-21 11:20 | 50.79566 | -0.50996 | 22300 ft | 356 kts | 293° |
| 2026-04-21 11:20 | 50.80449 | -0.54670 | 22301 ft | 356 kts | 293° |
| 2026-04-21 11:20 | 50.81344 | -0.58330 | 22298 ft | 356 kts | 293° |
| 2026-04-21 11:20 | 50.82210 | -0.61949 | 22292 ft | 356 kts | 293° |
| 2026-04-21 11:21 | 50.83066 | -0.65458 | 22288 ft | 356 kts | 294° |
| 2026-04-21 11:21 | 50.83938 | -0.69103 | 22291 ft | 356 kts | 293° |
| 2026-04-21 11:21 | 50.84824 | -0.72771 | 22287 ft | 357 kts | 294° |
| 2026-04-21 11:21 | 50.85682 | -0.76454 | 22284 ft | 357 kts | 291° |
| 2026-04-21 11:22 | 50.86401 | -0.80225 | 22280 ft | 358 kts | 289° |
| 2026-04-21 11:22 | 50.87058 | -0.84022 | 22278 ft | 358 kts | 288° |
| 2026-04-21 11:22 | 50.87691 | -0.87842 | 22288 ft | 360 kts | 288° |
| 2026-04-21 11:22 | 50.88336 | -0.91699 | 22285 ft | 364 kts | 288° |
| 2026-04-21 11:23 | 50.88983 | -0.95566 | 22274 ft | 361 kts | 288° |
| 2026-04-21 11:23 | 50.89620 | -0.99385 | 22281 ft | 358 kts | 288° |
| 2026-04-21 11:23 | 50.90256 | -1.03194 | 22289 ft | 358 kts | 288° |
| 2026-04-21 11:23 | 50.90894 | -1.07012 | 22296 ft | 359 kts | 288° |
| 2026-04-21 11:24 | 50.91529 | -1.10827 | 22300 ft | 358 kts | 288° |
| 2026-04-21 11:24 | 50.92165 | -1.14647 | 22296 ft | 358 kts | 288° |
| 2026-04-21 11:24 | 50.92762 | -1.18233 | 22301 ft | 358 kts | 288° |
| 2026-04-21 11:24 | 50.93417 | -1.22096 | 22305 ft | 359 kts | 288° |
| 2026-04-21 11:25 | 50.94056 | -1.25921 | 22310 ft | 358 kts | 288° |
| 2026-04-21 11:25 | 50.94695 | -1.29747 | 22309 ft | 358 kts | 288° |
| 2026-04-21 11:25 | 50.95282 | -1.33583 | 22304 ft | 360 kts | 281° |
| 2026-04-21 11:25 | 50.95125 | -1.37586 | 22320 ft | 370 kts | 263° |
| 2026-04-21 11:26 | 50.94500 | -1.41558 | 22296 ft | 372 kts | 260° |
| 2026-04-21 11:26 | 50.93819 | -1.45500 | 22304 ft | 369 kts | 259° |
| 2026-04-21 11:26 | 50.93119 | -1.49366 | 22308 ft | 370 kts | 259° |
| 2026-04-21 11:26 | 50.92390 | -1.53284 | 22305 ft | 371 kts | 259° |
| 2026-04-21 11:27 | 50.91674 | -1.57201 | 22300 ft | 370 kts | 259° |
| 2026-04-21 11:27 | 50.90963 | -1.61125 | 22296 ft | 370 kts | 259° |
| 2026-04-21 11:27 | 50.90277 | -1.65059 | 22301 ft | 370 kts | 260° |
| 2026-04-21 11:27 | 50.89606 | -1.68991 | 22307 ft | 370 kts | 260° |
| 2026-04-21 11:28 | 50.88940 | -1.72926 | 22312 ft | 370 kts | 260° |
| 2026-04-21 11:28 | 50.88257 | -1.76861 | 22308 ft | 370 kts | 259° |
| 2026-04-21 11:28 | 50.87561 | -1.80795 | 22303 ft | 370 kts | 259° |
| 2026-04-21 11:28 | 50.86887 | -1.84719 | 22305 ft | 369 kts | 260° |
| 2026-04-21 11:29 | 50.86207 | -1.88603 | 22249 ft | 370 kts | 259° |
| 2026-04-21 11:29 | 50.85525 | -1.92516 | 22266 ft | 368 kts | 259° |
| 2026-04-21 11:29 | 50.84848 | -1.96419 | 22270 ft | 368 kts | 258° |
| 2026-04-21 11:29 | 50.84151 | -2.00327 | 22276 ft | 369 kts | 259° |
| 2026-04-21 11:30 | 50.83470 | -2.04247 | 22277 ft | 369 kts | 259° |
| 2026-04-21 11:30 | 50.82772 | -2.08152 | 22279 ft | 369 kts | 258° |
| 2026-04-21 11:30 | 50.82084 | -2.12062 | 22280 ft | 368 kts | 259° |
| 2026-04-21 11:30 | 50.81392 | -2.15970 | 22283 ft | 369 kts | 258° |
| 2026-04-21 11:31 | 50.80691 | -2.19869 | 22287 ft | 369 kts | 259° |
| 2026-04-21 11:31 | 50.80007 | -2.23785 | 22285 ft | 369 kts | 258° |
| 2026-04-21 11:31 | 50.79313 | -2.27636 | 22287 ft | 369 kts | 258° |
| 2026-04-21 11:31 | 50.78606 | -2.31530 | 22286 ft | 368 kts | 258° |
| 2026-04-21 11:32 | 50.77913 | -2.35430 | 22275 ft | 369 kts | 258° |
| 2026-04-21 11:32 | 50.77211 | -2.39344 | 22282 ft | 370 kts | 258° |
| 2026-04-21 11:32 | 50.76507 | -2.43266 | 22285 ft | 370 kts | 258° |
| 2026-04-21 11:32 | 50.75803 | -2.47172 | 22285 ft | 370 kts | 258° |
| 2026-04-21 11:33 | 50.75098 | -2.51079 | 22287 ft | 370 kts | 258° |
| 2026-04-21 11:33 | 50.74393 | -2.54988 | 22290 ft | 370 kts | 258° |
| 2026-04-21 11:33 | 50.73684 | -2.58901 | 22290 ft | 370 kts | 258° |
| 2026-04-21 11:33 | 50.72979 | -2.62802 | 22287 ft | 370 kts | 258° |
| 2026-04-21 11:34 | 50.72271 | -2.66708 | 22284 ft | 370 kts | 258° |
| 2026-04-21 11:34 | 50.71564 | -2.70611 | 22287 ft | 370 kts | 258° |
| 2026-04-21 11:34 | 50.70855 | -2.74520 | 22285 ft | 370 kts | 258° |
| 2026-04-21 11:34 | 50.70155 | -2.78374 | 22283 ft | 370 kts | 258° |
| 2026-04-21 11:35 | 50.69441 | -2.82277 | 22272 ft | 371 kts | 257° |
| 2026-04-21 11:35 | 50.68715 | -2.86188 | 22276 ft | 372 kts | 257° |
| 2026-04-21 11:35 | 50.67984 | -2.90110 | 22277 ft | 372 kts | 257° |
| 2026-04-21 11:35 | 50.67253 | -2.94017 | 22278 ft | 372 kts | 257° |
| 2026-04-21 11:36 | 50.66520 | -2.97924 | 22277 ft | 372 kts | 257° |
| 2026-04-21 11:36 | 50.65788 | -3.01830 | 22276 ft | 372 kts | 257° |
| 2026-04-21 11:36 | 50.65054 | -3.05733 | 22274 ft | 372 kts | 257° |
| 2026-04-21 11:36 | 50.64318 | -3.09645 | 22274 ft | 372 kts | 257° |
| 2026-04-21 11:37 | 50.63583 | -3.13555 | 22273 ft | 372 kts | 257° |
| 2026-04-21 11:37 | 50.62846 | -3.17463 | 22272 ft | 372 kts | 257° |
| 2026-04-21 11:37 | 50.62111 | -3.21367 | 22271 ft | 372 kts | 257° |
| 2026-04-21 11:37 | 50.61375 | -3.25273 | 22272 ft | 372 kts | 257° |
| 2026-04-21 11:38 | 50.60653 | -3.29128 | 22269 ft | 372 kts | 257° |
| 2026-04-21 11:38 | 50.59932 | -3.33056 | 22258 ft | 374 kts | 256° |
| 2026-04-21 11:38 | 50.59198 | -3.36983 | 22266 ft | 374 kts | 256° |
| 2026-04-21 11:38 | 50.58457 | -3.40907 | 22270 ft | 374 kts | 256° |
| 2026-04-21 11:39 | 50.57719 | -3.44820 | 22273 ft | 373 kts | 257° |
| 2026-04-21 11:39 | 50.57163 | -3.48794 | 22274 ft | 371 kts | 262° |
| 2026-04-21 11:39 | 50.56791 | -3.52811 | 22277 ft | 371 kts | 264° |
| 2026-04-21 11:39 | 50.56477 | -3.56836 | 22277 ft | 371 kts | 265° |
| 2026-04-21 11:40 | 50.56185 | -3.60879 | 22281 ft | 371 kts | 265° |
| 2026-04-21 11:40 | 50.55890 | -3.64911 | 22276 ft | 371 kts | 265° |
| 2026-04-21 11:40 | 50.55580 | -3.68944 | 22272 ft | 371 kts | 265° |
| 2026-04-21 11:40 | 50.55270 | -3.72961 | 22258 ft | 371 kts | 264° |
| 2026-04-21 11:41 | 50.54946 | -3.76997 | 22255 ft | 371 kts | 264° |
| 2026-04-21 11:41 | 50.54609 | -3.81014 | 22146 ft | 367 kts | 264° |
| 2026-04-21 11:41 | 50.54272 | -3.84926 | 21752 ft | 356 kts | 264° |
| 2026-04-21 11:41 | 50.53956 | -3.88701 | 21210 ft | 350 kts | 264° |
| 2026-04-21 11:42 | 50.53653 | -3.92503 | 20518 ft | 350 kts | 265° |
| 2026-04-21 11:42 | 50.53349 | -3.96284 | 19978 ft | 345 kts | 264° |
| 2026-04-21 11:42 | 50.53040 | -4.00025 | 19356 ft | 342 kts | 264° |
| 2026-04-21 11:42 | 50.52722 | -4.03734 | 18762 ft | 340 kts | 264° |
| 2026-04-21 11:43 | 50.52407 | -4.07426 | 18006 ft | 341 kts | 264° |
| 2026-04-21 11:43 | 50.52099 | -4.11171 | 17478 ft | 349 kts | 264° |
| 2026-04-21 11:43 | 50.51775 | -4.14936 | 16958 ft | 345 kts | 264° |
| 2026-04-21 11:43 | 50.51448 | -4.18641 | 16437 ft | 340 kts | 264° |
| 2026-04-21 11:44 | 50.51136 | -4.22251 | 15938 ft | 337 kts | 264° |
| 2026-04-21 11:44 | 50.50829 | -4.25915 | 15437 ft | 339 kts | 264° |
| 2026-04-21 11:44 | 50.50512 | -4.29592 | 14944 ft | 341 kts | 263° |
| 2026-04-21 11:44 | 50.50184 | -4.33281 | 14461 ft | 342 kts | 263° |
| 2026-04-21 11:45 | 50.49858 | -4.36982 | 13978 ft | 342 kts | 263° |
| 2026-04-21 11:45 | 50.49528 | -4.40685 | 13441 ft | 342 kts | 263° |
| 2026-04-21 11:45 | 50.49195 | -4.44374 | 12915 ft | 340 kts | 263° |
| 2026-04-21 11:45 | 50.48871 | -4.48044 | 12392 ft | 339 kts | 262° |
| 2026-04-21 11:46 | 50.48660 | -4.50474 | 12052 ft | 337 kts | 262° |
| 2026-04-21 11:46 | 50.48348 | -4.54118 | 11550 ft | 337 kts | 262° |
| 2026-04-21 11:46 | 50.48034 | -4.57769 | 11059 ft | 337 kts | 262° |
| 2026-04-21 11:46 | 50.47714 | -4.61304 | 10573 ft | 315 kts | 261° |
| 2026-04-21 11:47 | 50.47412 | -4.64624 | 10081 ft | 302 kts | 261° |
| 2026-04-21 11:47 | 50.47123 | -4.67937 | 9530 ft | 309 kts | 261° |
| 2026-04-21 11:47 | 50.46822 | -4.71279 | 8994 ft | 309 kts | 261° |
| 2026-04-21 11:47 | 50.46525 | -4.74628 | 8478 ft | 311 kts | 261° |
| 2026-04-21 11:48 | 50.46217 | -4.77992 | 7971 ft | 311 kts | 261° |
| 2026-04-21 11:48 | 50.45908 | -4.81312 | 7480 ft | 312 kts | 261° |
| 2026-04-21 11:48 | 50.45594 | -4.84673 | 6993 ft | 311 kts | 261° |
| 2026-04-21 11:48 | 50.45305 | -4.87918 | 6508 ft | 283 kts | 262° |
| 2026-04-21 11:49 | 50.45041 | -4.90864 | 6059 ft | 271 kts | 261° |
| 2026-04-21 11:49 | 50.44768 | -4.93809 | 5633 ft | 274 kts | 261° |
| 2026-04-21 11:49 | 50.44496 | -4.96788 | 5239 ft | 277 kts | 260° |
| 2026-04-21 11:49 | 50.44288 | -4.99797 | 4869 ft | 278 kts | 268° |
| 2026-04-21 11:50 | 50.44355 | -5.02846 | 4483 ft | 280 kts | 274° |
| 2026-04-21 11:50 | 50.44538 | -5.05892 | 4089 ft | 281 kts | 276° |
| 2026-04-21 11:50 | 50.44765 | -5.08913 | 3720 ft | 269 kts | 277° |
| 2026-04-21 11:50 | 50.44985 | -5.11721 | 3316 ft | 256 kts | 277° |
| 2026-04-21 11:51 | 50.45197 | -5.14490 | 2924 ft | 262 kts | 279° |
| 2026-04-21 11:51 | 50.45878 | -5.17105 | 2532 ft | 260 kts | 314° |
| 2026-04-21 11:51 | 50.47267 | -5.18608 | 2207 ft | 226 kts | 351° |
| 2026-04-21 11:51 | 50.48749 | -5.18514 | 2066 ft | 209 kts | 31° |
| 2026-04-21 11:52 | 50.49730 | -5.17049 | 2025 ft | 192 kts | 72° |
| 2026-04-21 11:52 | 50.49759 | -5.15051 | 2033 ft | 183 kts | 108° |
| 2026-04-21 11:52 | 50.49187 | -5.13373 | 2062 ft | 164 kts | 113° |
| 2026-04-21 11:52 | 50.48718 | -5.11888 | 2021 ft | 142 kts | 114° |
| 2026-04-21 11:53 | 50.48252 | -5.10601 | 1761 ft | 126 kts | 116° |
| 2026-04-21 11:53 | 50.47828 | -5.09503 | 1556 ft | 110 kts | 116° |
| 2026-04-21 11:53 | 50.47446 | -5.08517 | 1398 ft | 104 kts | 115° |
| 2026-04-21 11:53 | 50.47086 | -5.07566 | 1286 ft | 103 kts | 116° |
| 2026-04-21 11:54 | 50.46725 | -5.06593 | 1161 ft | 103 kts | 115° |
| 2026-04-21 11:54 | 50.46368 | -5.05611 | 1028 ft | 105 kts | 117° |
| 2026-04-21 11:54 | 50.45994 | -5.04606 | 854 ft | 108 kts | 118° |
| 2026-04-21 11:54 | 50.45609 | -5.03619 | 693 ft | 104 kts | 117° |
| 2026-04-21 11:55 | 50.45238 | -5.02661 | 582 ft | 101 kts | 117° |
| 2026-04-21 11:55 | 50.44885 | -5.01685 | 439 ft | 104 kts | 118° |
| 2026-04-21 11:55 | 50.44520 | -5.00711 | 333 ft | 97 kts | 118° |
| 2026-04-21 11:55 | 50.44233 | -4.99935 | 349 ft | 68 kts | 121° |
| 2026-04-21 11:56 | 50.44033 | -4.99409 | 349 ft | 39 kts | 121° |
| 2026-04-21 11:56 | 50.43914 | -4.99095 | 354 ft | 28 kts | 120° |
| 2026-04-21 11:56 | 50.43819 | -4.98841 | 362 ft | 25 kts | 120° |
| 2026-04-21 11:56 | 50.43731 | -4.98607 | 368 ft | 27 kts | 120° |
| 2026-04-21 11:57 | 50.43647 | -4.98386 | 374 ft | 24 kts | 120° |
| 2026-04-21 11:57 | 50.43573 | -4.98187 | 384 ft | 18 kts | 120° |
| 2026-04-21 11:57 | 50.43533 | -4.98081 | 388 ft | 10 kts | 120° |
| 2026-04-21 11:57 | 50.43499 | -4.97990 | 392 ft | 9 kts | 120° |
| 2026-04-21 11:58 | 50.43478 | -4.97889 | 395 ft | 12 kts | 67° |
| 2026-04-21 11:58 | 50.43565 | -4.97846 | 395 ft | 14 kts | 360° |
| 2026-04-21 11:58 | 50.43653 | -4.97902 | 393 ft | 14 kts | 320° |
| 2026-04-21 11:58 | 50.43715 | -4.98031 | 390 ft | 17 kts | 299° |
| 2026-04-21 11:59 | 50.43781 | -4.98217 | 384 ft | 21 kts | 300° |
| 2026-04-21 11:59 | 50.43856 | -4.98411 | 381 ft | 21 kts | 301° |
| 2026-04-21 11:59 | 50.43932 | -4.98610 | 377 ft | 21 kts | 301° |
| 2026-04-21 11:59 | 50.44012 | -4.98820 | 369 ft | 24 kts | 301° |
| 2026-04-21 12:00 | 50.44099 | -4.99051 | 366 ft | 25 kts | 301° |
| 2026-04-21 12:00 | 50.44186 | -4.99282 | 363 ft | 21 kts | 300° |
| 2026-04-21 12:00 | 50.44259 | -4.99477 | 358 ft | 20 kts | 300° |
| 2026-04-21 12:00 | 50.44331 | -4.99671 | 351 ft | 21 kts | 300° |
| 2026-04-21 12:01 | 50.44409 | -4.99878 | 346 ft | 23 kts | 300° |
| 2026-04-21 12:01 | 50.44490 | -5.00091 | 344 ft | 20 kts | 302° |
| 2026-04-21 12:01 | 50.44558 | -5.00265 | 334 ft | 17 kts | 301° |
| 2026-04-21 12:01 | 50.44610 | -5.00377 | 333 ft | 10 kts | 351° |
| 2026-04-21 12:02 | 50.44622 | -5.00331 | 336 ft | 3 kts | 90° |
| 2026-04-21 12:02 | 50.44624 | -5.00302 | 336 ft | 1 kts | 77° |
| 2026-04-21 12:02 | 50.44626 | -5.00294 | 331 ft | 0 kts | 76° |